Brier, Washington
Current Conditions -  °F | °C
As of 12:53 AM on Wednesday 22 Oct 2014 (Local Time) from KPAE Reporting Station
Light Rain Light Rain  
Wind Chill: 55°   Ceiling: 5500
Heat Index: 55°   Visibility: 10mi
Dew Point: 47°   Wind: 7mph
Humidity: 74%   Direction: NA
Pressure: 29.7"   Gusts: NA
Location:  47.8111°N, 122.283°W
Report Text: KPAE 220753Z AUTO VRB06KT 10SM -RA OVC055 13/08 A2970 RMK AO2 SLP056 P0002 T01280083 401560117
Loading
Personal Weather Stations






























Interactive Weather Map
Tropical Storm Tracking
New forecast layout! Learn more

10-Day Weather Forecast

Advertisements
Track Severe Weather on mobile